Levanto — 9HAH9 — position and weather

sailwx.info

Track history (hours):
 
Tides and Currents Weather Stations Pressure Air Temp Water Temp Dewpoint Dewpoint Depression Visibility Wind Speed Wind Dir Waves Ship Positions

Levanto

Last reported at 2018-Apr-11 08:47 UTC. Time now 2018-Apr-21 21:13 UTC.
Position N 24°21' W 080°07'.
Warning: this ship's position is 10 days out of date.

Length 225 m; draft 6.9 m.

Type: Cargo ship. MMSI: 249900000.

Date/timePositionNaut miles runAvg speedWind from/ knotsBaromVisibWave heightAir tempDewpointWater temp
2018-Apr-11 08:47N 24°21' W 080°07'511.2
2018-Apr-11 08:18N 24°25' W 080°02'311.2
2018-Apr-11 08:00N 24°27' W 079°60'611.0
2018-Apr-11 07:29N 24°30' W 079°54'203 9.3
2018-Apr-10 09:37N 25°52' W 076°30'513.7
2018-Apr-10 09:17N 25°53' W 076°25'413.6
2018-Apr-10 09:00N 25°54' W 076°20'713.7
2018-Apr-10 08:31N 25°56' W 076°13'713.6
2018-Apr-10 08:00N 25°58' W 076°06'713.2
2018-Apr-10 07:26N 25°59' W 075°58'613.1
2018-Apr-10 07:00N 26°01' W 075°52'  
2018-Apr-02 14:56N 36°19' W 031°52'3712.8
2018-Apr-02 12:02N 36°18' W 031°06'012.3
2018-Apr-02 12:00N 36°18' W 031°06'612.6
2018-Apr-02 11:30N 36°18' W 030°58'612.3
2018-Apr-02 11:00N 36°18' W 030°50'612.3
2018-Apr-02 10:29N 36°18' W 030°42'1912.2
2018-Apr-02 08:54N 36°18' W 030°18'20310.0
2018-Apr-01 12:42N 36°19' W 026°07'2 9.1
2018-Apr-01 12:27N 36°19' W 026°04'4 9.2
2018-Apr-01 12:01N 36°20' W 025°59'5 9.1
2018-Apr-01 11:30N 36°20' W 025°53'5 9.2
2018-Apr-01 11:00N 36°20' W 025°48'5 9.4
2018-Apr-01 10:30N 36°20' W 025°42'5 9.4
2018-Apr-01 10:00N 36°20' W 025°36'5 9.7
2018-Apr-01 09:30N 36°19' W 025°30'510.0
2018-Apr-01 09:00N 36°19' W 025°24'  
Track history (hours):
 
Tides and Currents Weather Stations Pressure Air Temp Water Temp Dewpoint Dewpoint Depression Visibility Wind Speed Wind Dir Waves Ship Positions

Levanto

Last reported at 2018-Apr-11 08:47 UTC. Time now 2018-Apr-21 21:13 UTC.
Position N 24°21' W 080°07'.
Warning: this ship's position is 10 days out of date.

Length 225 m; draft 6.9 m.

Type: Cargo ship. MMSI: 249900000.

Date/timePositionNaut miles runAvg speedWind from/ knotsBaromVisibWave heightAir tempDewpointWater temp
2018-Apr-11 08:47N 24°21' W 080°07'511.2
2018-Apr-11 08:18N 24°25' W 080°02'311.2
2018-Apr-11 08:00N 24°27' W 079°60'611.0
2018-Apr-11 07:29N 24°30' W 079°54'203 9.3
2018-Apr-10 09:37N 25°52' W 076°30'513.7
2018-Apr-10 09:17N 25°53' W 076°25'413.6
2018-Apr-10 09:00N 25°54' W 076°20'713.7
2018-Apr-10 08:31N 25°56' W 076°13'713.6
2018-Apr-10 08:00N 25°58' W 076°06'713.2
2018-Apr-10 07:26N 25°59' W 075°58'613.1
2018-Apr-10 07:00N 26°01' W 075°52'  
2018-Apr-02 14:56N 36°19' W 031°52'3712.8
2018-Apr-02 12:02N 36°18' W 031°06'012.3
2018-Apr-02 12:00N 36°18' W 031°06'612.6
2018-Apr-02 11:30N 36°18' W 030°58'612.3
2018-Apr-02 11:00N 36°18' W 030°50'612.3
2018-Apr-02 10:29N 36°18' W 030°42'1912.2
2018-Apr-02 08:54N 36°18' W 030°18'20310.0
2018-Apr-01 12:42N 36°19' W 026°07'2 9.1
2018-Apr-01 12:27N 36°19' W 026°04'4 9.2
2018-Apr-01 12:01N 36°20' W 025°59'5 9.1
2018-Apr-01 11:30N 36°20' W 025°53'5 9.2
2018-Apr-01 11:00N 36°20' W 025°48'5 9.4
2018-Apr-01 10:30N 36°20' W 025°42'5 9.4
2018-Apr-01 10:00N 36°20' W 025°36'5 9.7
2018-Apr-01 09:30N 36°19' W 025°30'510.0
2018-Apr-01 09:00N 36°19' W 025°24'  

Dump ship's entire track history